sensor_id;sensor_type;location;lat;lon;timestamp;P1;durP1;ratioP1;P2;durP2;ratioP2
5058;SDS011;2548;52.050;11.036;2024-01-27T00:00:32;19.45;;;5.13;;
5058;SDS011;2548;52.050;11.036;2024-01-27T00:03:00;16.75;;;4.30;;
5058;SDS011;2548;52.050;11.036;2024-01-27T00:05:28;16.60;;;3.85;;
5058;SDS011;2548;52.050;11.036;2024-01-27T00:07:55;23.20;;;6.10;;
5058;SDS011;2548;52.050;11.036;2024-01-27T00:10:23;21.23;;;4.05;;
5058;SDS011;2548;52.050;11.036;2024-01-27T00:12:51;19.10;;;4.53;;
5058;SDS011;2548;52.050;11.036;2024-01-27T00:15:18;22.98;;;5.45;;
5058;SDS011;2548;52.050;11.036;2024-01-27T00:17:45;22.10;;;4.45;;
5058;SDS011;2548;52.050;11.036;2024-01-27T00:20:13;14.05;;;3.55;;
5058;SDS011;2548;52.050;11.036;2024-01-27T00:22:40;38.83;;;5.43;;
5058;SDS011;2548;52.050;11.036;2024-01-27T00:25:07;13.70;;;5.47;;
5058;SDS011;2548;52.050;11.036;2024-01-27T00:27:36;15.50;;;4.68;;
5058;SDS011;2548;52.050;11.036;2024-01-27T00:30:04;19.02;;;3.47;;
5058;SDS011;2548;52.050;11.036;2024-01-27T00:32:32;32.67;;;5.07;;
5058;SDS011;2548;52.050;11.036;2024-01-27T00:34:59;25.33;;;4.32;;
5058;SDS011;2548;52.050;11.036;2024-01-27T00:37:27;21.58;;;5.00;;
5058;SDS011;2548;52.050;11.036;2024-01-27T00:39:54;20.38;;;4.07;;
5058;SDS011;2548;52.050;11.036;2024-01-27T00:42:21;12.70;;;3.50;;
5058;SDS011;2548;52.050;11.036;2024-01-27T00:44:51;31.13;;;3.92;;
5058;SDS011;2548;52.050;11.036;2024-01-27T00:47:18;14.80;;;5.10;;
5058;SDS011;2548;52.050;11.036;2024-01-27T00:49:45;9.98;;;4.00;;
5058;SDS011;2548;52.050;11.036;2024-01-27T00:52:13;16.23;;;3.33;;
5058;SDS011;2548;52.050;11.036;2024-01-27T00:54:40;18.98;;;4.88;;
5058;SDS011;2548;52.050;11.036;2024-01-27T00:57:08;22.30;;;4.78;;
5058;SDS011;2548;52.050;11.036;2024-01-27T00:59:35;18.98;;;3.50;;
5058;SDS011;2548;52.050;11.036;2024-01-27T01:02:03;18.50;;;4.43;;
5058;SDS011;2548;52.050;11.036;2024-01-27T01:04:31;39.97;;;5.03;;
5058;SDS011;2548;52.050;11.036;2024-01-27T01:06:58;12.13;;;4.78;;
5058;SDS011;2548;52.050;11.036;2024-01-27T01:09:26;18.02;;;5.50;;
5058;SDS011;2548;52.050;11.036;2024-01-27T01:11:53;24.45;;;4.90;;
5058;SDS011;2548;52.050;11.036;2024-01-27T01:14:20;16.70;;;3.90;;
5058;SDS011;2548;52.050;11.036;2024-01-27T01:16:47;20.52;;;3.63;;
5058;SDS011;2548;52.050;11.036;2024-01-27T01:19:16;19.02;;;5.20;;
5058;SDS011;2548;52.050;11.036;2024-01-27T01:21:43;20.13;;;3.95;;
5058;SDS011;2548;52.050;11.036;2024-01-27T01:24:11;19.67;;;3.80;;
5058;SDS011;2548;52.050;11.036;2024-01-27T01:26:38;16.42;;;3.55;;
5058;SDS011;2548;52.050;11.036;2024-01-27T01:29:05;19.90;;;5.47;;
5058;SDS011;2548;52.050;11.036;2024-01-27T01:31:33;22.17;;;3.88;;
5058;SDS011;2548;52.050;11.036;2024-01-27T01:34:00;18.80;;;3.40;;
5058;SDS011;2548;52.050;11.036;2024-01-27T01:36:28;14.82;;;2.47;;
5058;SDS011;2548;52.050;11.036;2024-01-27T01:38:56;25.23;;;3.60;;
5058;SDS011;2548;52.050;11.036;2024-01-27T01:41:23;29.45;;;4.25;;
5058;SDS011;2548;52.050;11.036;2024-01-27T01:43:50;16.60;;;3.03;;
5058;SDS011;2548;52.050;11.036;2024-01-27T01:46:17;13.98;;;2.97;;
5058;SDS011;2548;52.050;11.036;2024-01-27T01:48:45;19.95;;;3.40;;
5058;SDS011;2548;52.050;11.036;2024-01-27T01:51:12;27.65;;;2.55;;
5058;SDS011;2548;52.050;11.036;2024-01-27T01:53:41;14.02;;;3.42;;
5058;SDS011;2548;52.050;11.036;2024-01-27T01:56:09;8.48;;;2.40;;
5058;SDS011;2548;52.050;11.036;2024-01-27T01:58:36;13.98;;;3.03;;
5058;SDS011;2548;52.050;11.036;2024-01-27T02:01:04;6.80;;;2.33;;
5058;SDS011;2548;52.050;11.036;2024-01-27T02:03:31;14.35;;;2.60;;
5058;SDS011;2548;52.050;11.036;2024-01-27T02:05:58;16.05;;;2.95;;
5058;SDS011;2548;52.050;11.036;2024-01-27T02:08:25;7.88;;;1.73;;
5058;SDS011;2548;52.050;11.036;2024-01-27T02:10:54;7.38;;;2.38;;
5058;SDS011;2548;52.050;11.036;2024-01-27T02:13:23;16.13;;;4.50;;
5058;SDS011;2548;52.050;11.036;2024-01-27T02:15:52;16.27;;;2.45;;
5058;SDS011;2548;52.050;11.036;2024-01-27T02:18:19;21.20;;;4.75;;
5058;SDS011;2548;52.050;11.036;2024-01-27T02:20:47;28.60;;;4.80;;
5058;SDS011;2548;52.050;11.036;2024-01-27T02:23:14;29.73;;;3.90;;
5058;SDS011;2548;52.050;11.036;2024-01-27T02:25:43;18.00;;;3.40;;
5058;SDS011;2548;52.050;11.036;2024-01-27T02:28:10;25.88;;;4.38;;
5058;SDS011;2548;52.050;11.036;2024-01-27T02:30:38;21.60;;;3.20;;
5058;SDS011;2548;52.050;11.036;2024-01-27T02:33:05;20.05;;;3.10;;
5058;SDS011;2548;52.050;11.036;2024-01-27T02:35:32;16.90;;;3.13;;
5058;SDS011;2548;52.050;11.036;2024-01-27T02:38:00;11.25;;;3.75;;
5058;SDS011;2548;52.050;11.036;2024-01-27T02:40:27;17.75;;;3.45;;
5058;SDS011;2548;52.050;11.036;2024-01-27T02:42:56;17.30;;;2.63;;
5058;SDS011;2548;52.050;11.036;2024-01-27T02:45:23;12.10;;;3.22;;
5058;SDS011;2548;52.050;11.036;2024-01-27T02:47:50;15.88;;;2.75;;
5058;SDS011;2548;52.050;11.036;2024-01-27T02:50:17;16.23;;;2.80;;
5058;SDS011;2548;52.050;11.036;2024-01-27T02:52:45;17.67;;;2.90;;
5058;SDS011;2548;52.050;11.036;2024-01-27T02:55:12;7.45;;;2.80;;
5058;SDS011;2548;52.050;11.036;2024-01-27T02:57:40;13.52;;;2.60;;
5058;SDS011;2548;52.050;11.036;2024-01-27T03:00:09;8.68;;;3.17;;
5058;SDS011;2548;52.050;11.036;2024-01-27T03:02:37;16.38;;;3.05;;
5058;SDS011;2548;52.050;11.036;2024-01-27T03:05:04;16.00;;;2.60;;
5058;SDS011;2548;52.050;11.036;2024-01-27T03:07:33;15.73;;;2.90;;
5058;SDS011;2548;52.050;11.036;2024-01-27T03:10:00;13.48;;;2.47;;
5058;SDS011;2548;52.050;11.036;2024-01-27T03:12:28;15.43;;;3.05;;
5058;SDS011;2548;52.050;11.036;2024-01-27T03:14:55;18.55;;;3.65;;
5058;SDS011;2548;52.050;11.036;2024-01-27T03:17:23;11.95;;;4.03;;
5058;SDS011;2548;52.050;11.036;2024-01-27T03:19:51;23.50;;;4.25;;
5058;SDS011;2548;52.050;11.036;2024-01-27T03:22:18;22.02;;;3.97;;
5058;SDS011;2548;52.050;11.036;2024-01-27T03:24:45;16.65;;;3.47;;
5058;SDS011;2548;52.050;11.036;2024-01-27T03:27:13;27.83;;;4.32;;
5058;SDS011;2548;52.050;11.036;2024-01-27T03:29:40;47.60;;;4.85;;
5058;SDS011;2548;52.050;11.036;2024-01-27T03:32:07;21.85;;;3.75;;
5058;SDS011;2548;52.050;11.036;2024-01-27T03:34:36;16.25;;;3.45;;
5058;SDS011;2548;52.050;11.036;2024-01-27T03:37:04;27.88;;;5.78;;
5058;SDS011;2548;52.050;11.036;2024-01-27T03:39:31;16.15;;;4.15;;
5058;SDS011;2548;52.050;11.036;2024-01-27T03:41:58;23.33;;;4.45;;
5058;SDS011;2548;52.050;11.036;2024-01-27T03:44:26;13.27;;;3.13;;
5058;SDS011;2548;52.050;11.036;2024-01-27T03:46:53;16.25;;;3.40;;
5058;SDS011;2548;52.050;11.036;2024-01-27T03:49:20;18.05;;;3.40;;
5058;SDS011;2548;52.050;11.036;2024-01-27T03:51:49;16.88;;;4.05;;
5058;SDS011;2548;52.050;11.036;2024-01-27T03:54:16;26.73;;;5.50;;
5058;SDS011;2548;52.050;11.036;2024-01-27T03:56:43;16.70;;;5.22;;
5058;SDS011;2548;52.050;11.036;2024-01-27T03:59:10;17.33;;;4.50;;
5058;SDS011;2548;52.050;11.036;2024-01-27T04:01:38;26.40;;;4.13;;
5058;SDS011;2548;52.050;11.036;2024-01-27T04:04:05;25.30;;;4.50;;
5058;SDS011;2548;52.050;11.036;2024-01-27T04:06:35;16.70;;;4.43;;
5058;SDS011;2548;52.050;11.036;2024-01-27T04:09:05;22.05;;;4.25;;
5058;SDS011;2548;52.050;11.036;2024-01-27T04:11:34;19.80;;;3.63;;
5058;SDS011;2548;52.050;11.036;2024-01-27T04:14:03;8.70;;;3.17;;
5058;SDS011;2548;52.050;11.036;2024-01-27T04:16:30;11.88;;;3.50;;
5058;SDS011;2548;52.050;11.036;2024-01-27T04:18:58;17.42;;;3.38;;
5058;SDS011;2548;52.050;11.036;2024-01-27T04:21:25;25.90;;;4.80;;
5058;SDS011;2548;52.050;11.036;2024-01-27T04:23:52;11.13;;;2.85;;
5058;SDS011;2548;52.050;11.036;2024-01-27T04:26:21;21.90;;;3.13;;
5058;SDS011;2548;52.050;11.036;2024-01-27T04:28:48;25.92;;;3.08;;
5058;SDS011;2548;52.050;11.036;2024-01-27T04:31:15;21.83;;;4.82;;
5058;SDS011;2548;52.050;11.036;2024-01-27T04:33:43;27.92;;;3.50;;
5058;SDS011;2548;52.050;11.036;2024-01-27T04:36:10;20.75;;;3.70;;
5058;SDS011;2548;52.050;11.036;2024-01-27T04:38:37;25.60;;;4.90;;
5058;SDS011;2548;52.050;11.036;2024-01-27T04:41:04;26.63;;;4.10;;
5058;SDS011;2548;52.050;11.036;2024-01-27T04:43:33;16.27;;;3.17;;
5058;SDS011;2548;52.050;11.036;2024-01-27T04:46:00;21.92;;;3.90;;
5058;SDS011;2548;52.050;11.036;2024-01-27T04:48:27;22.73;;;4.32;;
5058;SDS011;2548;52.050;11.036;2024-01-27T04:50:55;16.60;;;4.25;;
5058;SDS011;2548;52.050;11.036;2024-01-27T04:53:22;19.98;;;4.30;;
5058;SDS011;2548;52.050;11.036;2024-01-27T04:55:49;24.50;;;4.88;;
5058;SDS011;2548;52.050;11.036;2024-01-27T04:58:16;24.30;;;4.05;;
5058;SDS011;2548;52.050;11.036;2024-01-27T05:00:45;36.25;;;4.13;;
5058;SDS011;2548;52.050;11.036;2024-01-27T05:03:12;15.77;;;3.40;;
5058;SDS011;2548;52.050;11.036;2024-01-27T05:05:40;19.45;;;4.38;;
5058;SDS011;2548;52.050;11.036;2024-01-27T05:08:08;18.05;;;4.18;;
5058;SDS011;2548;52.050;11.036;2024-01-27T05:10:35;29.20;;;4.63;;
5058;SDS011;2548;52.050;11.036;2024-01-27T05:13:03;15.23;;;3.83;;
5058;SDS011;2548;52.050;11.036;2024-01-27T05:15:30;21.95;;;3.92;;
5058;SDS011;2548;52.050;11.036;2024-01-27T05:17:59;23.13;;;4.15;;
5058;SDS011;2548;52.050;11.036;2024-01-27T05:20:26;23.02;;;4.88;;
5058;SDS011;2548;52.050;11.036;2024-01-27T05:22:53;19.63;;;4.10;;
5058;SDS011;2548;52.050;11.036;2024-01-27T05:25:21;22.50;;;4.00;;
5058;SDS011;2548;52.050;11.036;2024-01-27T05:27:48;15.75;;;4.03;;
5058;SDS011;2548;52.050;11.036;2024-01-27T05:30:16;13.73;;;4.32;;
5058;SDS011;2548;52.050;11.036;2024-01-27T05:32:43;22.70;;;3.35;;
5058;SDS011;2548;52.050;11.036;2024-01-27T05:35:12;15.70;;;3.60;;
5058;SDS011;2548;52.050;11.036;2024-01-27T05:37:39;13.57;;;3.40;;
5058;SDS011;2548;52.050;11.036;2024-01-27T05:40:07;32.88;;;4.22;;
5058;SDS011;2548;52.050;11.036;2024-01-27T05:42:35;33.70;;;5.20;;
5058;SDS011;2548;52.050;11.036;2024-01-27T05:45:03;18.83;;;3.58;;
5058;SDS011;2548;52.050;11.036;2024-01-27T05:47:31;22.63;;;4.18;;
5058;SDS011;2548;52.050;11.036;2024-01-27T05:49:59;19.08;;;3.85;;
5058;SDS011;2548;52.050;11.036;2024-01-27T05:52:27;14.05;;;3.58;;
5058;SDS011;2548;52.050;11.036;2024-01-27T05:54:54;17.83;;;4.90;;
5058;SDS011;2548;52.050;11.036;2024-01-27T05:57:22;17.10;;;3.50;;
5058;SDS011;2548;52.050;11.036;2024-01-27T05:59:49;20.88;;;5.53;;
5058;SDS011;2548;52.050;11.036;2024-01-27T06:02:16;25.65;;;4.45;;
5058;SDS011;2548;52.050;11.036;2024-01-27T06:04:43;19.15;;;3.78;;
5058;SDS011;2548;52.050;11.036;2024-01-27T06:07:11;24.95;;;4.45;;
5058;SDS011;2548;52.050;11.036;2024-01-27T06:09:39;21.77;;;4.43;;
5058;SDS011;2548;52.050;11.036;2024-01-27T06:12:06;21.55;;;3.42;;
5058;SDS011;2548;52.050;11.036;2024-01-27T06:14:34;20.20;;;4.20;;
5058;SDS011;2548;52.050;11.036;2024-01-27T06:17:02;27.73;;;3.92;;
5058;SDS011;2548;52.050;11.036;2024-01-27T06:19:31;17.98;;;5.50;;
5058;SDS011;2548;52.050;11.036;2024-01-27T06:21:58;14.55;;;4.47;;
5058;SDS011;2548;52.050;11.036;2024-01-27T06:24:25;23.40;;;4.38;;
5058;SDS011;2548;52.050;11.036;2024-01-27T06:26:54;19.15;;;4.53;;
5058;SDS011;2548;52.050;11.036;2024-01-27T06:29:21;25.23;;;4.40;;
5058;SDS011;2548;52.050;11.036;2024-01-27T06:31:48;34.17;;;4.80;;
5058;SDS011;2548;52.050;11.036;2024-01-27T06:34:16;25.85;;;4.22;;
5058;SDS011;2548;52.050;11.036;2024-01-27T06:36:44;20.80;;;4.40;;
5058;SDS011;2548;52.050;11.036;2024-01-27T06:39:11;21.20;;;4.95;;
5058;SDS011;2548;52.050;11.036;2024-01-27T06:41:38;22.95;;;3.88;;
5058;SDS011;2548;52.050;11.036;2024-01-27T06:44:07;10.55;;;3.85;;
5058;SDS011;2548;52.050;11.036;2024-01-27T06:46:34;11.23;;;3.72;;
5058;SDS011;2548;52.050;11.036;2024-01-27T06:49:00;17.92;;;4.57;;
5058;SDS011;2548;52.050;11.036;2024-01-27T06:51:28;32.20;;;5.15;;
5058;SDS011;2548;52.050;11.036;2024-01-27T06:53:55;19.15;;;4.72;;
5058;SDS011;2548;52.050;11.036;2024-01-27T06:56:22;21.00;;;4.15;;
5058;SDS011;2548;52.050;11.036;2024-01-27T06:58:50;20.38;;;4.47;;
5058;SDS011;2548;52.050;11.036;2024-01-27T07:01:19;24.48;;;4.57;;
5058;SDS011;2548;52.050;11.036;2024-01-27T07:03:46;22.83;;;5.68;;
5058;SDS011;2548;52.050;11.036;2024-01-27T07:06:14;16.48;;;4.57;;
5058;SDS011;2548;52.050;11.036;2024-01-27T07:08:41;21.23;;;4.90;;
5058;SDS011;2548;52.050;11.036;2024-01-27T07:11:08;11.82;;;4.18;;
5058;SDS011;2548;52.050;11.036;2024-01-27T07:13:35;11.98;;;4.28;;
5058;SDS011;2548;52.050;11.036;2024-01-27T07:16:03;17.42;;;3.97;;
5058;SDS011;2548;52.050;11.036;2024-01-27T07:18:33;13.73;;;4.57;;
5058;SDS011;2548;52.050;11.036;2024-01-27T07:21:01;21.42;;;4.60;;
5058;SDS011;2548;52.050;11.036;2024-01-27T07:23:28;14.13;;;3.90;;
5058;SDS011;2548;52.050;11.036;2024-01-27T07:25:55;8.15;;;3.83;;
5058;SDS011;2548;52.050;11.036;2024-01-27T07:28:28;20.20;;;4.85;;
5058;SDS011;2548;52.050;11.036;2024-01-27T07:30:56;18.58;;;4.20;;
5058;SDS011;2548;52.050;11.036;2024-01-27T07:33:23;20.15;;;5.35;;
5058;SDS011;2548;52.050;11.036;2024-01-27T07:35:52;19.80;;;4.60;;
5058;SDS011;2548;52.050;11.036;2024-01-27T07:38:19;21.42;;;4.97;;
5058;SDS011;2548;52.050;11.036;2024-01-27T07:40:46;31.83;;;6.35;;
5058;SDS011;2548;52.050;11.036;2024-01-27T07:43:13;23.77;;;4.03;;
5058;SDS011;2548;52.050;11.036;2024-01-27T07:45:41;15.25;;;3.72;;
5058;SDS011;2548;52.050;11.036;2024-01-27T07:48:09;26.83;;;4.13;;
5058;SDS011;2548;52.050;11.036;2024-01-27T07:50:36;15.07;;;3.70;;
5058;SDS011;2548;52.050;11.036;2024-01-27T07:53:05;17.30;;;4.20;;
5058;SDS011;2548;52.050;11.036;2024-01-27T07:55:32;20.63;;;3.92;;
5058;SDS011;2548;52.050;11.036;2024-01-27T07:58:00;30.52;;;4.35;;
5058;SDS011;2548;52.050;11.036;2024-01-27T08:00:27;22.40;;;5.18;;
5058;SDS011;2548;52.050;11.036;2024-01-27T08:02:54;15.70;;;4.13;;
5058;SDS011;2548;52.050;11.036;2024-01-27T08:05:21;25.92;;;4.40;;
5058;SDS011;2548;52.050;11.036;2024-01-27T08:07:49;30.70;;;4.80;;
5058;SDS011;2548;52.050;11.036;2024-01-27T08:10:17;25.90;;;4.97;;
5058;SDS011;2548;52.050;11.036;2024-01-27T08:12:45;26.67;;;4.30;;
5058;SDS011;2548;52.050;11.036;2024-01-27T08:15:12;11.23;;;3.55;;
5058;SDS011;2548;52.050;11.036;2024-01-27T08:17:39;21.10;;;4.13;;
5058;SDS011;2548;52.050;11.036;2024-01-27T08:20:07;25.17;;;5.43;;
5058;SDS011;2548;52.050;11.036;2024-01-27T08:22:35;21.75;;;6.10;;
5058;SDS011;2548;52.050;11.036;2024-01-27T08:25:02;18.63;;;7.75;;
5058;SDS011;2548;52.050;11.036;2024-01-27T08:27:31;24.48;;;6.05;;
5058;SDS011;2548;52.050;11.036;2024-01-27T08:29:58;18.80;;;7.18;;
5058;SDS011;2548;52.050;11.036;2024-01-27T08:32:26;32.75;;;5.05;;
5058;SDS011;2548;52.050;11.036;2024-01-27T08:34:53;19.63;;;5.80;;
5058;SDS011;2548;52.050;11.036;2024-01-27T08:37:20;23.38;;;8.57;;
5058;SDS011;2548;52.050;11.036;2024-01-27T08:39:47;29.63;;;7.72;;
5058;SDS011;2548;52.050;11.036;2024-01-27T08:42:16;29.98;;;7.85;;
5058;SDS011;2548;52.050;11.036;2024-01-27T08:44:45;18.85;;;5.60;;
5058;SDS011;2548;52.050;11.036;2024-01-27T08:47:12;21.85;;;5.78;;
5058;SDS011;2548;52.050;11.036;2024-01-27T08:49:38;34.80;;;7.90;;
5058;SDS011;2548;52.050;11.036;2024-01-27T08:52:07;17.73;;;6.03;;
5058;SDS011;2548;52.050;11.036;2024-01-27T08:54:34;19.92;;;6.00;;
5058;SDS011;2548;52.050;11.036;2024-01-27T08:57:01;14.82;;;5.65;;
5058;SDS011;2548;52.050;11.036;2024-01-27T08:59:29;22.92;;;6.07;;
5058;SDS011;2548;52.050;11.036;2024-01-27T09:01:57;19.50;;;6.07;;
5058;SDS011;2548;52.050;11.036;2024-01-27T09:04:25;25.67;;;6.65;;
5058;SDS011;2548;52.050;11.036;2024-01-27T09:06:52;13.50;;;4.90;;
5058;SDS011;2548;52.050;11.036;2024-01-27T09:09:19;22.88;;;6.53;;
5058;SDS011;2548;52.050;11.036;2024-01-27T09:11:46;19.05;;;5.07;;
5058;SDS011;2548;52.050;11.036;2024-01-27T09:14:15;12.82;;;4.63;;
5058;SDS011;2548;52.050;11.036;2024-01-27T09:16:42;17.13;;;5.28;;
5058;SDS011;2548;52.050;11.036;2024-01-27T09:19:12;23.30;;;5.57;;
5058;SDS011;2548;52.050;11.036;2024-01-27T09:21:40;27.00;;;6.20;;
5058;SDS011;2548;52.050;11.036;2024-01-27T09:24:07;16.88;;;5.78;;
5058;SDS011;2548;52.050;11.036;2024-01-27T09:26:34;14.00;;;5.80;;
5058;SDS011;2548;52.050;11.036;2024-01-27T09:29:01;12.98;;;5.60;;
5058;SDS011;2548;52.050;11.036;2024-01-27T09:31:29;25.20;;;7.05;;
5058;SDS011;2548;52.050;11.036;2024-01-27T09:33:56;17.65;;;5.82;;
5058;SDS011;2548;52.050;11.036;2024-01-27T09:36:24;12.70;;;5.45;;
5058;SDS011;2548;52.050;11.036;2024-01-27T09:38:52;16.02;;;5.85;;
5058;SDS011;2548;52.050;11.036;2024-01-27T09:41:20;16.77;;;5.35;;
5058;SDS011;2548;52.050;11.036;2024-01-27T09:43:47;22.30;;;6.03;;
5058;SDS011;2548;52.050;11.036;2024-01-27T09:46:15;28.63;;;6.25;;
5058;SDS011;2548;52.050;11.036;2024-01-27T09:48:43;28.95;;;6.30;;
5058;SDS011;2548;52.050;11.036;2024-01-27T09:51:11;14.27;;;5.90;;
5058;SDS011;2548;52.050;11.036;2024-01-27T09:53:40;27.65;;;7.03;;
5058;SDS011;2548;52.050;11.036;2024-01-27T09:56:07;26.77;;;7.05;;
5058;SDS011;2548;52.050;11.036;2024-01-27T09:58:36;21.00;;;7.03;;
5058;SDS011;2548;52.050;11.036;2024-01-27T10:01:04;23.17;;;6.53;;
5058;SDS011;2548;52.050;11.036;2024-01-27T10:03:33;16.45;;;7.13;;
5058;SDS011;2548;52.050;11.036;2024-01-27T10:06:02;26.67;;;7.15;;
5058;SDS011;2548;52.050;11.036;2024-01-27T10:08:34;19.27;;;6.25;;
5058;SDS011;2548;52.050;11.036;2024-01-27T10:11:05;25.65;;;6.78;;
5058;SDS011;2548;52.050;11.036;2024-01-27T10:13:34;22.98;;;7.65;;
5058;SDS011;2548;52.050;11.036;2024-01-27T10:16:01;27.88;;;7.40;;
5058;SDS011;2548;52.050;11.036;2024-01-27T10:18:29;17.35;;;8.20;;
5058;SDS011;2548;52.050;11.036;2024-01-27T10:20:57;22.10;;;8.57;;
5058;SDS011;2548;52.050;11.036;2024-01-27T10:23:25;22.35;;;9.25;;
5058;SDS011;2548;52.050;11.036;2024-01-27T10:25:52;24.30;;;7.40;;
5058;SDS011;2548;52.050;11.036;2024-01-27T10:28:21;16.88;;;7.15;;
5058;SDS011;2548;52.050;11.036;2024-01-27T10:30:49;21.08;;;7.90;;
5058;SDS011;2548;52.050;11.036;2024-01-27T10:33:16;20.23;;;8.27;;
5058;SDS011;2548;52.050;11.036;2024-01-27T10:35:44;22.35;;;8.40;;
5058;SDS011;2548;52.050;11.036;2024-01-27T10:38:11;13.32;;;7.53;;
5058;SDS011;2548;52.050;11.036;2024-01-27T10:40:38;31.48;;;6.55;;
5058;SDS011;2548;52.050;11.036;2024-01-27T10:43:06;26.63;;;8.52;;
5058;SDS011;2548;52.050;11.036;2024-01-27T10:45:36;18.27;;;7.68;;
5058;SDS011;2548;52.050;11.036;2024-01-27T10:48:04;16.98;;;7.50;;
5058;SDS011;2548;52.050;11.036;2024-01-27T10:50:34;22.80;;;7.75;;
5058;SDS011;2548;52.050;11.036;2024-01-27T10:53:03;25.58;;;8.57;;
5058;SDS011;2548;52.050;11.036;2024-01-27T10:55:33;23.30;;;7.82;;
5058;SDS011;2548;52.050;11.036;2024-01-27T10:58:01;23.95;;;6.90;;
5058;SDS011;2548;52.050;11.036;2024-01-27T11:00:29;15.50;;;7.45;;
5058;SDS011;2548;52.050;11.036;2024-01-27T11:02:59;23.23;;;6.90;;
5058;SDS011;2548;52.050;11.036;2024-01-27T11:05:30;24.50;;;6.85;;
5058;SDS011;2548;52.050;11.036;2024-01-27T11:08:01;16.23;;;7.65;;
5058;SDS011;2548;52.050;11.036;2024-01-27T11:10:30;21.52;;;7.28;;
5058;SDS011;2548;52.050;11.036;2024-01-27T11:13:01;18.83;;;6.55;;
5058;SDS011;2548;52.050;11.036;2024-01-27T11:15:30;16.40;;;7.03;;
5058;SDS011;2548;52.050;11.036;2024-01-27T11:17:59;27.92;;;7.13;;
5058;SDS011;2548;52.050;11.036;2024-01-27T11:20:27;13.80;;;6.05;;
5058;SDS011;2548;52.050;11.036;2024-01-27T11:23:07;17.30;;;6.07;;
5058;SDS011;2548;52.050;11.036;2024-01-27T11:25:35;15.30;;;5.40;;
5058;SDS011;2548;52.050;11.036;2024-01-27T11:28:10;14.70;;;6.13;;
5058;SDS011;2548;52.050;11.036;2024-01-27T11:30:38;21.15;;;5.80;;
5058;SDS011;2548;52.050;11.036;2024-01-27T11:33:07;16.73;;;6.38;;
5058;SDS011;2548;52.050;11.036;2024-01-27T11:35:36;26.05;;;6.03;;
5058;SDS011;2548;52.050;11.036;2024-01-27T11:38:03;15.52;;;5.80;;
5058;SDS011;2548;52.050;11.036;2024-01-27T11:40:30;13.20;;;5.65;;
5058;SDS011;2548;52.050;11.036;2024-01-27T11:42:59;17.80;;;6.38;;
5058;SDS011;2548;52.050;11.036;2024-01-27T11:45:28;16.65;;;5.40;;
5058;SDS011;2548;52.050;11.036;2024-01-27T11:47:58;16.50;;;5.30;;
5058;SDS011;2548;52.050;11.036;2024-01-27T11:50:28;15.45;;;5.60;;
5058;SDS011;2548;52.050;11.036;2024-01-27T11:52:55;19.05;;;5.43;;
5058;SDS011;2548;52.050;11.036;2024-01-27T11:55:23;15.35;;;4.28;;
5058;SDS011;2548;52.050;11.036;2024-01-27T11:57:50;18.83;;;5.30;;
5058;SDS011;2548;52.050;11.036;2024-01-27T12:00:17;13.93;;;5.07;;
5058;SDS011;2548;52.050;11.036;2024-01-27T12:02:45;15.70;;;4.90;;
5058;SDS011;2548;52.050;11.036;2024-01-27T12:05:17;10.70;;;4.75;;
5058;SDS011;2548;52.050;11.036;2024-01-27T12:07:45;27.55;;;5.20;;
5058;SDS011;2548;52.050;11.036;2024-01-27T12:10:13;16.48;;;5.40;;
5058;SDS011;2548;52.050;11.036;2024-01-27T12:12:41;11.77;;;5.13;;
5058;SDS011;2548;52.050;11.036;2024-01-27T12:15:08;12.50;;;4.70;;
5058;SDS011;2548;52.050;11.036;2024-01-27T12:17:35;23.08;;;4.82;;
5058;SDS011;2548;52.050;11.036;2024-01-27T12:20:04;30.23;;;5.55;;
5058;SDS011;2548;52.050;11.036;2024-01-27T12:22:41;15.68;;;5.50;;
5058;SDS011;2548;52.050;11.036;2024-01-27T12:25:11;22.38;;;5.43;;
5058;SDS011;2548;52.050;11.036;2024-01-27T12:27:39;8.15;;;4.28;;
5058;SDS011;2548;52.050;11.036;2024-01-27T12:30:07;22.00;;;7.00;;
5058;SDS011;2548;52.050;11.036;2024-01-27T12:32:35;13.02;;;5.32;;
5058;SDS011;2548;52.050;11.036;2024-01-27T12:35:04;18.10;;;5.50;;
5058;SDS011;2548;52.050;11.036;2024-01-27T12:37:32;18.45;;;5.55;;
5058;SDS011;2548;52.050;11.036;2024-01-27T12:40:00;11.32;;;6.47;;
5058;SDS011;2548;52.050;11.036;2024-01-27T12:42:29;27.42;;;5.60;;
5058;SDS011;2548;52.050;11.036;2024-01-27T12:44:56;21.58;;;5.28;;
5058;SDS011;2548;52.050;11.036;2024-01-27T12:47:23;12.50;;;5.40;;
5058;SDS011;2548;52.050;11.036;2024-01-27T12:49:50;16.40;;;5.70;;
5058;SDS011;2548;52.050;11.036;2024-01-27T12:52:18;14.32;;;4.85;;
5058;SDS011;2548;52.050;11.036;2024-01-27T12:54:47;15.73;;;4.90;;
5058;SDS011;2548;52.050;11.036;2024-01-27T12:57:14;22.83;;;4.80;;
5058;SDS011;2548;52.050;11.036;2024-01-27T12:59:44;13.80;;;5.43;;
5058;SDS011;2548;52.050;11.036;2024-01-27T13:02:11;22.30;;;6.00;;
5058;SDS011;2548;52.050;11.036;2024-01-27T13:04:40;26.52;;;7.53;;
5058;SDS011;2548;52.050;11.036;2024-01-27T13:07:08;21.00;;;5.55;;
5058;SDS011;2548;52.050;11.036;2024-01-27T13:09:35;21.63;;;5.32;;
5058;SDS011;2548;52.050;11.036;2024-01-27T13:12:03;10.63;;;4.78;;
5058;SDS011;2548;52.050;11.036;2024-01-27T13:14:31;15.98;;;4.47;;
5058;SDS011;2548;52.050;11.036;2024-01-27T13:17:00;24.25;;;5.20;;
5058;SDS011;2548;52.050;11.036;2024-01-27T13:19:27;19.60;;;6.50;;
5058;SDS011;2548;52.050;11.036;2024-01-27T13:21:56;12.20;;;5.60;;
5058;SDS011;2548;52.050;11.036;2024-01-27T13:24:23;21.20;;;6.45;;
5058;SDS011;2548;52.050;11.036;2024-01-27T13:26:51;20.00;;;6.07;;
5058;SDS011;2548;52.050;11.036;2024-01-27T13:29:18;17.42;;;5.07;;
5058;SDS011;2548;52.050;11.036;2024-01-27T13:31:46;12.60;;;5.88;;
5058;SDS011;2548;52.050;11.036;2024-01-27T13:34:15;14.02;;;6.15;;
5058;SDS011;2548;52.050;11.036;2024-01-27T13:36:42;17.02;;;5.90;;
5058;SDS011;2548;52.050;11.036;2024-01-27T13:39:09;21.42;;;5.75;;
5058;SDS011;2548;52.050;11.036;2024-01-27T13:41:37;27.05;;;7.28;;
5058;SDS011;2548;52.050;11.036;2024-01-27T13:44:04;14.73;;;4.97;;
5058;SDS011;2548;52.050;11.036;2024-01-27T13:46:32;22.95;;;5.07;;
5058;SDS011;2548;52.050;11.036;2024-01-27T13:48:59;17.35;;;4.40;;
5058;SDS011;2548;52.050;11.036;2024-01-27T13:51:28;17.20;;;6.20;;
5058;SDS011;2548;52.050;11.036;2024-01-27T13:53:55;19.98;;;4.90;;
5058;SDS011;2548;52.050;11.036;2024-01-27T13:56:22;33.65;;;5.53;;
5058;SDS011;2548;52.050;11.036;2024-01-27T13:58:50;22.80;;;5.03;;
5058;SDS011;2548;52.050;11.036;2024-01-27T14:01:19;30.30;;;5.38;;
5058;SDS011;2548;52.050;11.036;2024-01-27T14:03:46;14.77;;;4.05;;
5058;SDS011;2548;52.050;11.036;2024-01-27T14:06:13;14.18;;;5.13;;
5058;SDS011;2548;52.050;11.036;2024-01-27T14:08:42;14.10;;;5.35;;
5058;SDS011;2548;52.050;11.036;2024-01-27T14:11:09;15.95;;;4.65;;
5058;SDS011;2548;52.050;11.036;2024-01-27T14:13:36;17.60;;;3.50;;
5058;SDS011;2548;52.050;11.036;2024-01-27T14:16:04;24.38;;;4.93;;
5058;SDS011;2548;52.050;11.036;2024-01-27T14:18:31;21.75;;;5.90;;
5058;SDS011;2548;52.050;11.036;2024-01-27T14:20:58;18.70;;;4.45;;
5058;SDS011;2548;52.050;11.036;2024-01-27T14:23:26;18.23;;;3.88;;
5058;SDS011;2548;52.050;11.036;2024-01-27T14:25:55;20.83;;;3.30;;
5058;SDS011;2548;52.050;11.036;2024-01-27T14:28:22;17.95;;;3.30;;
5058;SDS011;2548;52.050;11.036;2024-01-27T14:30:50;10.27;;;3.13;;
5058;SDS011;2548;52.050;11.036;2024-01-27T14:33:17;17.83;;;3.60;;
5058;SDS011;2548;52.050;11.036;2024-01-27T14:35:46;9.45;;;3.45;;
5058;SDS011;2548;52.050;11.036;2024-01-27T14:38:13;20.92;;;6.03;;
5058;SDS011;2548;52.050;11.036;2024-01-27T14:40:41;26.48;;;5.82;;
5058;SDS011;2548;52.050;11.036;2024-01-27T14:43:10;20.15;;;6.47;;
5058;SDS011;2548;52.050;11.036;2024-01-27T14:45:38;20.40;;;6.50;;
5058;SDS011;2548;52.050;11.036;2024-01-27T14:48:05;17.70;;;5.30;;
5058;SDS011;2548;52.050;11.036;2024-01-27T14:50:33;21.50;;;6.53;;